createdAt,value
2022-08-20T00:01:23.494Z,3.40
2022-08-20T00:06:31.596Z,2.80
2022-08-20T00:11:37.644Z,3.60
2022-08-20T00:16:43.392Z,3.15
2022-08-20T00:21:51.398Z,3.37
2022-08-20T00:27:03.428Z,4.15
2022-08-20T00:32:10.032Z,3.85
2022-08-20T00:37:18.534Z,4.33
2022-08-20T00:42:23.860Z,4.78
2022-08-20T00:47:29.390Z,4.60
2022-08-20T00:52:38.423Z,4.40
2022-08-20T00:58:01.403Z,4.67
2022-08-20T01:03:10.667Z,4.53
2022-08-20T01:08:21.977Z,4.65
2022-08-20T01:13:28.378Z,4.93
2022-08-20T01:18:34.466Z,4.78
2022-08-20T01:23:50.311Z,4.70
2022-08-20T01:29:01.789Z,3.63
2022-08-20T01:34:10.997Z,4.43
2022-08-20T01:39:22.835Z,4.47
2022-08-20T01:44:31.746Z,4.83
2022-08-20T01:49:38.594Z,4.50
2022-08-20T01:54:44.549Z,4.82
2022-08-20T01:59:53.755Z,4.40
2022-08-20T02:05:00.938Z,4.07
2022-08-20T02:10:08.226Z,4.30
2022-08-20T02:15:16.791Z,3.95
2022-08-20T02:20:30.105Z,3.67
2022-08-20T02:25:38.625Z,4.30
2022-08-20T02:30:50.562Z,4.38
2022-08-20T02:35:57.308Z,3.93
2022-08-20T02:41:03.008Z,4.60
2022-08-20T02:46:11.120Z,4.30
2022-08-20T02:51:16.992Z,4.13
2022-08-20T02:56:36.587Z,4.80
2022-08-20T03:01:45.905Z,4.00
2022-08-20T03:06:51.395Z,4.97
2022-08-20T03:11:57.738Z,4.40
2022-08-20T03:17:06.442Z,4.60
2022-08-20T03:22:12.240Z,4.22
2022-08-20T03:27:17.792Z,4.90
2022-08-20T03:32:30.322Z,4.67
2022-08-20T03:37:37.579Z,4.03
2022-08-20T03:42:45.276Z,4.70
2022-08-20T03:47:54.798Z,4.87
2022-08-20T03:53:01.927Z,4.82
2022-08-20T03:58:10.376Z,4.53
2022-08-20T04:03:19.845Z,5.00
2022-08-20T04:08:29.643Z,5.25
2022-08-20T04:13:37.128Z,5.03
2022-08-20T04:19:01.755Z,4.47
2022-08-20T04:24:08.984Z,4.87
2022-08-20T04:29:32.006Z,4.80
2022-08-20T04:34:40.958Z,4.63
2022-08-20T04:40:06.525Z,4.97
2022-08-20T04:45:12.787Z,4.93
2022-08-20T04:50:21.944Z,3.92
2022-08-20T04:55:32.413Z,3.63
2022-08-20T05:00:38.194Z,4.18
2022-08-20T05:05:47.327Z,2.80
2022-08-20T05:10:58.067Z,2.70
2022-08-20T05:16:19.775Z,2.10
2022-08-20T05:21:27.839Z,2.60
2022-08-20T05:26:33.915Z,1.85
2022-08-20T05:31:39.607Z,2.23
2022-08-20T05:36:53.092Z,2.45
2022-08-20T05:42:01.212Z,1.77
2022-08-20T05:47:08.060Z,2.00
2022-08-20T05:52:16.644Z,2.15
2022-08-20T05:57:23.489Z,2.47
2022-08-20T06:02:41.938Z,2.10
2022-08-20T06:07:50.956Z,2.70
2022-08-20T06:13:00.174Z,2.40
2022-08-20T06:18:28.103Z,2.40
2022-08-20T06:23:54.388Z,3.90
2022-08-20T06:29:02.720Z,4.90
2022-08-20T06:34:08.582Z,4.82
2022-08-20T06:39:16.809Z,6.50
2022-08-20T06:44:22.408Z,7.53
2022-08-20T06:49:28.126Z,9.38
2022-08-20T06:54:43.721Z,9.00
2022-08-20T06:59:54.130Z,11.60
2022-08-20T07:05:00.225Z,14.00
2022-08-20T07:10:11.562Z,12.95
2022-08-20T07:15:17.559Z,13.60
2022-08-20T07:20:23.966Z,13.68
2022-08-20T07:25:33.956Z,11.57
2022-08-20T07:30:57.055Z,12.87
2022-08-20T07:36:05.754Z,12.23
2022-08-20T07:41:15.431Z,10.90
2022-08-20T07:46:23.846Z,11.47
2022-08-20T07:51:37.532Z,10.50
2022-08-20T07:56:45.870Z,8.35
2022-08-20T08:01:51.412Z,9.32
2022-08-20T08:07:00.578Z,10.70
2022-08-20T08:12:09.916Z,11.40
2022-08-20T08:17:16.694Z,9.20
2022-08-20T08:22:23.396Z,9.40
2022-08-20T08:27:34.627Z,9.25
2022-08-20T08:33:01.578Z,8.95
2022-08-20T08:38:07.359Z,8.33
2022-08-20T08:43:23.230Z,9.23
2022-08-20T08:48:38.854Z,7.35
2022-08-20T08:53:48.798Z,8.80
2022-08-20T08:58:57.965Z,7.77
2022-08-20T09:04:06.189Z,8.30
2022-08-20T09:09:23.066Z,7.53
2022-08-20T09:14:31.219Z,8.17
2022-08-20T09:19:40.407Z,8.02
2022-08-20T09:24:47.019Z,7.57
2022-08-20T09:29:56.250Z,8.60
2022-08-20T09:35:03.302Z,7.90
2022-08-20T09:40:13.192Z,8.05
2022-08-20T09:45:21.951Z,6.78
2022-08-20T09:50:28.418Z,6.43
2022-08-20T09:55:37.022Z,6.32
2022-08-20T10:00:45.596Z,5.18
2022-08-20T10:05:51.067Z,6.07
2022-08-20T10:10:57.671Z,8.20
2022-08-20T10:16:07.294Z,6.95
2022-08-20T10:21:13.631Z,7.77
2022-08-20T10:26:19.444Z,5.93
2022-08-20T10:31:29.092Z,7.57
2022-08-20T10:36:34.763Z,8.82
2022-08-20T10:41:40.416Z,7.43
2022-08-20T10:46:48.805Z,7.47
2022-08-20T10:51:57.750Z,9.32
2022-08-20T10:57:05.411Z,7.63
2022-08-20T11:02:14.236Z,7.13
2022-08-20T11:07:49.452Z,7.80
2022-08-20T11:12:48.892Z,7.47
2022-08-20T11:17:57.138Z,8.53
2022-08-20T11:23:03.414Z,7.15
2022-08-20T11:28:09.730Z,8.65
2022-08-20T11:33:17.708Z,7.97
2022-08-20T11:38:27.087Z,8.10
2022-08-20T11:43:32.853Z,8.48
2022-08-20T11:48:41.257Z,8.23
2022-08-20T11:53:46.850Z,8.68
2022-08-20T11:58:52.824Z,9.55
2022-08-20T12:04:00.965Z,7.60
2022-08-20T12:09:07.215Z,8.10
2022-08-20T12:14:12.924Z,8.45
2022-08-20T12:19:21.523Z,7.57
2022-08-20T12:24:27.494Z,7.93
2022-08-20T12:29:38.927Z,7.47
2022-08-20T12:34:47.096Z,8.82
2022-08-20T12:39:54.794Z,6.80
2022-08-20T12:45:00.695Z,7.00
2022-08-20T12:50:12.703Z,6.65
2022-08-20T12:55:20.863Z,6.93
2022-08-20T13:00:28.451Z,5.63
2022-08-20T13:05:39.094Z,6.10
2022-08-20T13:10:48.587Z,6.43
2022-08-20T13:15:54.627Z,6.40
2022-08-20T13:21:02.573Z,6.68
2022-08-20T13:26:08.279Z,5.95
2022-08-20T13:31:14.199Z,4.80
2022-08-20T13:36:22.576Z,5.60
2022-08-20T13:41:27.943Z,5.15
2022-08-20T13:46:33.452Z,4.80
2022-08-20T13:51:41.840Z,4.20
2022-08-20T13:56:47.219Z,4.45
2022-08-20T14:01:52.943Z,4.20
2022-08-20T14:07:01.358Z,3.90
2022-08-20T14:12:07.473Z,4.25
2022-08-20T14:17:18.815Z,3.60
2022-08-20T14:22:28.209Z,3.30
2022-08-20T14:27:36.228Z,3.22
2022-08-20T14:32:42.636Z,3.65
2022-08-20T14:37:58.568Z,2.70
2022-08-20T14:43:09.734Z,3.60
2022-08-20T14:48:15.515Z,3.30
2022-08-20T14:53:24.335Z,3.58
2022-08-20T14:58:30.149Z,3.57
2022-08-20T15:03:41.001Z,3.40
2022-08-20T15:08:53.253Z,3.53
2022-08-20T15:13:59.365Z,4.33
2022-08-20T15:19:07.387Z,3.75
2022-08-20T15:24:19.130Z,3.42
2022-08-20T15:29:25.385Z,3.83
2022-08-20T15:34:31.061Z,3.57
2022-08-20T15:39:39.997Z,3.83
2022-08-20T15:44:46.692Z,4.75
2022-08-20T15:49:55.682Z,3.80
2022-08-20T15:55:05.653Z,4.20
2022-08-20T16:00:18.143Z,4.22
2022-08-20T16:05:32.926Z,4.23
2022-08-20T16:10:53.630Z,3.80
2022-08-20T16:16:06.571Z,3.75
2022-08-20T16:21:16.465Z,4.00
2022-08-20T16:26:37.552Z,4.03
2022-08-20T16:31:49.353Z,4.05
2022-08-20T16:37:07.746Z,3.90
2022-08-20T16:42:16.668Z,3.30
2022-08-20T16:47:24.590Z,3.55
2022-08-20T16:52:31.134Z,3.55
2022-08-20T16:57:39.652Z,3.73
2022-08-20T17:02:56.248Z,4.30
2022-08-20T17:08:05.870Z,4.35
2022-08-20T17:13:28.163Z,3.90
2022-08-20T17:18:36.765Z,4.30
2022-08-20T17:23:56.062Z,3.97
2022-08-20T17:29:13.492Z,4.07
2022-08-20T17:34:22.161Z,4.20
2022-08-20T17:39:31.888Z,4.72
2022-08-20T17:44:45.866Z,4.43
2022-08-20T17:50:02.583Z,4.83
2022-08-20T17:55:11.386Z,3.72
2022-08-20T18:00:25.942Z,4.47
2022-08-20T18:05:35.843Z,4.07
2022-08-20T18:10:50.150Z,4.03
2022-08-20T18:16:01.430Z,4.35
2022-08-20T18:21:40.839Z,4.30
2022-08-20T18:26:49.450Z,4.27
2022-08-20T18:32:06.532Z,3.83
2022-08-20T18:37:31.373Z,4.10
2022-08-20T18:42:39.233Z,4.10
2022-08-20T18:47:49.063Z,3.85
2022-08-20T18:53:08.216Z,4.03
2022-08-20T18:58:16.329Z,4.63
2022-08-20T19:03:31.888Z,4.07
2022-08-20T19:08:50.638Z,3.83
2022-08-20T19:14:27.337Z,4.50
2022-08-20T19:19:36.398Z,3.63
2022-08-20T19:24:44.662Z,4.10
2022-08-20T19:29:56.795Z,3.42
2022-08-20T19:35:09.405Z,4.17
2022-08-20T19:40:28.528Z,3.95
2022-08-20T19:45:40.522Z,4.53
2022-08-20T19:50:54.782Z,4.43
2022-08-20T19:56:03.032Z,5.27
2022-08-20T20:01:14.008Z,4.50
2022-08-20T20:06:24.884Z,4.20
2022-08-20T20:11:37.232Z,5.13
2022-08-20T20:16:44.328Z,4.97
2022-08-20T20:21:54.760Z,4.75
2022-08-20T20:27:02.072Z,4.77
2022-08-20T20:32:18.011Z,4.53
2022-08-20T20:37:48.854Z,4.68
2022-08-20T20:43:08.199Z,4.47
2022-08-20T20:48:23.375Z,4.93
2022-08-20T20:53:51.108Z,4.10
2022-08-20T20:58:56.807Z,4.80
2022-08-20T21:04:02.327Z,4.77
2022-08-20T21:09:11.210Z,3.97
2022-08-20T21:14:16.688Z,3.30
2022-08-20T21:19:22.897Z,4.13
2022-08-20T21:24:31.117Z,3.75
2022-08-20T21:29:36.886Z,3.70
2022-08-20T21:34:42.382Z,3.93
2022-08-20T21:39:50.542Z,3.27
2022-08-20T21:44:56.359Z,3.90
2022-08-20T21:50:02.435Z,3.78
2022-08-20T21:55:11.787Z,3.33
2022-08-20T22:00:22.450Z,3.47
2022-08-20T22:05:28.519Z,3.55
2022-08-20T22:10:36.946Z,4.13
2022-08-20T22:15:42.716Z,4.55
2022-08-20T22:20:48.635Z,3.88
2022-08-20T22:25:56.744Z,3.73
2022-08-20T22:31:02.570Z,3.83
2022-08-20T22:36:09.807Z,3.08
2022-08-20T22:41:18.902Z,4.18
2022-08-20T22:46:24.989Z,3.67
2022-08-20T22:51:36.643Z,4.30
2022-08-20T22:56:46.975Z,3.45
2022-08-20T23:01:53.508Z,3.90
2022-08-20T23:07:00.433Z,3.45
2022-08-20T23:12:09.896Z,3.30
2022-08-20T23:17:20.615Z,3.20
2022-08-20T23:22:26.114Z,3.00
2022-08-20T23:27:34.652Z,2.45
2022-08-20T23:32:42.327Z,3.10
2022-08-20T23:37:50.207Z,3.03
2022-08-20T23:42:58.932Z,3.00
2022-08-20T23:48:05.019Z,3.13
2022-08-20T23:53:10.753Z,2.87
2022-08-20T23:58:19.380Z,2.70
